sensor_id;sensor_type;location;lat;lon;timestamp;P1;durP1;ratioP1;P2;durP2;ratioP2
73557;SDS011;61829;53.286;10.434;2023-10-09T00:02:08;8.73;;;1.55;;
73557;SDS011;61829;53.286;10.434;2023-10-09T00:04:36;5.72;;;1.65;;
73557;SDS011;61829;53.286;10.434;2023-10-09T00:07:09;2.42;;;1.30;;
73557;SDS011;61829;53.286;10.434;2023-10-09T00:09:37;4.43;;;1.63;;
73557;SDS011;61829;53.286;10.434;2023-10-09T00:12:17;3.17;;;1.58;;
73557;SDS011;61829;53.286;10.434;2023-10-09T00:14:51;4.95;;;1.95;;
73557;SDS011;61829;53.286;10.434;2023-10-09T00:17:33;3.85;;;1.52;;
73557;SDS011;61829;53.286;10.434;2023-10-09T00:19:59;3.90;;;1.63;;
73557;SDS011;61829;53.286;10.434;2023-10-09T00:22:26;6.22;;;1.65;;
73557;SDS011;61829;53.286;10.434;2023-10-09T00:24:55;4.03;;;1.80;;
73557;SDS011;61829;53.286;10.434;2023-10-09T00:27:46;5.45;;;1.70;;
73557;SDS011;61829;53.286;10.434;2023-10-09T00:30:15;3.88;;;2.03;;
73557;SDS011;61829;53.286;10.434;2023-10-09T00:32:47;4.90;;;2.17;;
73557;SDS011;61829;53.286;10.434;2023-10-09T00:35:25;5.07;;;1.70;;
73557;SDS011;61829;53.286;10.434;2023-10-09T00:38:10;4.43;;;1.67;;
73557;SDS011;61829;53.286;10.434;2023-10-09T00:40:59;3.45;;;1.77;;
73557;SDS011;61829;53.286;10.434;2023-10-09T00:43:34;3.20;;;1.70;;
73557;SDS011;61829;53.286;10.434;2023-10-09T00:46:03;4.15;;;1.85;;
73557;SDS011;61829;53.286;10.434;2023-10-09T00:48:50;11.20;;;2.47;;
73557;SDS011;61829;53.286;10.434;2023-10-09T00:51:20;7.05;;;1.77;;
73557;SDS011;61829;53.286;10.434;2023-10-09T00:56:22;5.72;;;2.03;;
73557;SDS011;61829;53.286;10.434;2023-10-09T00:58:55;3.20;;;1.42;;
73557;SDS011;61829;53.286;10.434;2023-10-09T01:01:41;3.53;;;1.77;;
73557;SDS011;61829;53.286;10.434;2023-10-09T01:04:30;3.13;;;1.77;;
73557;SDS011;61829;53.286;10.434;2023-10-09T01:07:02;5.90;;;1.83;;
73557;SDS011;61829;53.286;10.434;2023-10-09T01:09:41;3.20;;;1.45;;
73557;SDS011;61829;53.286;10.434;2023-10-09T01:12:09;4.38;;;1.65;;
73557;SDS011;61829;53.286;10.434;2023-10-09T01:14:44;5.18;;;1.70;;
73557;SDS011;61829;53.286;10.434;2023-10-09T01:17:11;4.35;;;1.60;;
73557;SDS011;61829;53.286;10.434;2023-10-09T01:19:44;7.78;;;1.75;;
73557;SDS011;61829;53.286;10.434;2023-10-09T01:22:10;6.20;;;2.53;;
73557;SDS011;61829;53.286;10.434;2023-10-09T01:24:40;4.68;;;1.88;;
73557;SDS011;61829;53.286;10.434;2023-10-09T01:27:06;5.05;;;1.50;;
73557;SDS011;61829;53.286;10.434;2023-10-09T01:29:40;6.05;;;1.75;;
73557;SDS011;61829;53.286;10.434;2023-10-09T01:32:07;5.50;;;1.60;;
73557;SDS011;61829;53.286;10.434;2023-10-09T01:34:42;4.65;;;1.70;;
73557;SDS011;61829;53.286;10.434;2023-10-09T01:37:14;2.97;;;1.40;;
73557;SDS011;61829;53.286;10.434;2023-10-09T01:40:01;4.13;;;1.80;;
73557;SDS011;61829;53.286;10.434;2023-10-09T01:43:02;9.05;;;2.05;;
73557;SDS011;61829;53.286;10.434;2023-10-09T01:45:29;4.95;;;1.42;;
73557;SDS011;61829;53.286;10.434;2023-10-09T01:47:55;3.45;;;1.40;;
73557;SDS011;61829;53.286;10.434;2023-10-09T01:50:22;4.35;;;1.58;;
73557;SDS011;61829;53.286;10.434;2023-10-09T01:52:56;4.05;;;1.60;;
73557;SDS011;61829;53.286;10.434;2023-10-09T01:55:27;2.35;;;1.38;;
73557;SDS011;61829;53.286;10.434;2023-10-09T01:57:55;2.67;;;1.60;;
73557;SDS011;61829;53.286;10.434;2023-10-09T02:00:28;3.05;;;1.50;;
73557;SDS011;61829;53.286;10.434;2023-10-09T02:06:07;4.95;;;1.40;;
73557;SDS011;61829;53.286;10.434;2023-10-09T02:08:51;3.65;;;1.52;;
73557;SDS011;61829;53.286;10.434;2023-10-09T02:11:18;4.57;;;1.40;;
73557;SDS011;61829;53.286;10.434;2023-10-09T02:14:20;3.78;;;1.55;;
73557;SDS011;61829;53.286;10.434;2023-10-09T02:16:46;5.05;;;1.48;;
73557;SDS011;61829;53.286;10.434;2023-10-09T02:19:29;2.60;;;1.48;;
73557;SDS011;61829;53.286;10.434;2023-10-09T02:22:06;5.00;;;1.88;;
73557;SDS011;61829;53.286;10.434;2023-10-09T02:24:41;3.30;;;1.55;;
73557;SDS011;61829;53.286;10.434;2023-10-09T02:31:10;3.80;;;1.20;;
73557;SDS011;61829;53.286;10.434;2023-10-09T02:33:37;3.53;;;1.60;;
73557;SDS011;61829;53.286;10.434;2023-10-09T02:36:05;4.70;;;2.05;;
73557;SDS011;61829;53.286;10.434;2023-10-09T02:41:03;3.70;;;1.30;;
73557;SDS011;61829;53.286;10.434;2023-10-09T02:43:30;6.72;;;1.90;;
73557;SDS011;61829;53.286;10.434;2023-10-09T02:46:12;5.50;;;1.65;;
73557;SDS011;61829;53.286;10.434;2023-10-09T02:49:01;5.55;;;1.50;;
73557;SDS011;61829;53.286;10.434;2023-10-09T02:51:32;4.80;;;1.90;;
73557;SDS011;61829;53.286;10.434;2023-10-09T02:53:59;3.28;;;1.75;;
73557;SDS011;61829;53.286;10.434;2023-10-09T02:59:23;3.63;;;1.20;;
73557;SDS011;61829;53.286;10.434;2023-10-09T03:01:50;3.70;;;1.63;;
73557;SDS011;61829;53.286;10.434;2023-10-09T03:04:19;2.95;;;1.50;;
73557;SDS011;61829;53.286;10.434;2023-10-09T03:06:45;3.45;;;1.65;;
73557;SDS011;61829;53.286;10.434;2023-10-09T03:09:18;4.95;;;1.70;;
73557;SDS011;61829;53.286;10.434;2023-10-09T03:11:52;4.15;;;2.08;;
73557;SDS011;61829;53.286;10.434;2023-10-09T03:14:21;3.10;;;1.40;;
73557;SDS011;61829;53.286;10.434;2023-10-09T03:16:52;4.60;;;1.65;;
73557;SDS011;61829;53.286;10.434;2023-10-09T03:19:18;4.05;;;1.80;;
73557;SDS011;61829;53.286;10.434;2023-10-09T03:21:44;4.72;;;1.88;;
73557;SDS011;61829;53.286;10.434;2023-10-09T03:24:12;6.97;;;1.80;;
73557;SDS011;61829;53.286;10.434;2023-10-09T03:26:38;6.03;;;1.77;;
73557;SDS011;61829;53.286;10.434;2023-10-09T03:29:04;4.75;;;1.90;;
73557;SDS011;61829;53.286;10.434;2023-10-09T03:31:36;5.20;;;2.15;;
73557;SDS011;61829;53.286;10.434;2023-10-09T03:34:03;4.93;;;2.08;;
73557;SDS011;61829;53.286;10.434;2023-10-09T03:36:30;4.78;;;1.90;;
73557;SDS011;61829;53.286;10.434;2023-10-09T03:38:57;4.93;;;1.80;;
73557;SDS011;61829;53.286;10.434;2023-10-09T03:41:26;8.93;;;2.10;;
73557;SDS011;61829;53.286;10.434;2023-10-09T03:43:52;5.68;;;2.05;;
73557;SDS011;61829;53.286;10.434;2023-10-09T03:46:22;5.45;;;1.50;;
73557;SDS011;61829;53.286;10.434;2023-10-09T03:48:58;3.00;;;1.45;;
73557;SDS011;61829;53.286;10.434;2023-10-09T03:51:27;3.45;;;1.48;;
73557;SDS011;61829;53.286;10.434;2023-10-09T03:53:53;3.83;;;2.00;;
73557;SDS011;61829;53.286;10.434;2023-10-09T03:56:19;4.60;;;1.52;;
73557;SDS011;61829;53.286;10.434;2023-10-09T04:01:15;5.78;;;1.58;;
73557;SDS011;61829;53.286;10.434;2023-10-09T04:03:55;3.40;;;1.48;;
73557;SDS011;61829;53.286;10.434;2023-10-09T04:06:25;6.47;;;1.63;;
73557;SDS011;61829;53.286;10.434;2023-10-09T04:11:25;4.00;;;1.50;;
73557;SDS011;61829;53.286;10.434;2023-10-09T04:13:51;2.70;;;1.40;;
73557;SDS011;61829;53.286;10.434;2023-10-09T04:16:19;2.65;;;1.40;;
73557;SDS011;61829;53.286;10.434;2023-10-09T04:18:57;3.35;;;1.58;;
73557;SDS011;61829;53.286;10.434;2023-10-09T04:21:25;5.05;;;1.58;;
73557;SDS011;61829;53.286;10.434;2023-10-09T04:24:04;4.60;;;1.50;;
73557;SDS011;61829;53.286;10.434;2023-10-09T04:26:40;6.20;;;1.42;;
73557;SDS011;61829;53.286;10.434;2023-10-09T04:29:13;6.00;;;1.60;;
73557;SDS011;61829;53.286;10.434;2023-10-09T04:31:55;4.43;;;1.58;;
73557;SDS011;61829;53.286;10.434;2023-10-09T04:34:25;5.32;;;1.58;;
73557;SDS011;61829;53.286;10.434;2023-10-09T04:37:00;2.65;;;1.30;;
73557;SDS011;61829;53.286;10.434;2023-10-09T04:39:42;4.97;;;1.30;;
73557;SDS011;61829;53.286;10.434;2023-10-09T04:44:50;3.38;;;1.45;;
73557;SDS011;61829;53.286;10.434;2023-10-09T04:47:28;3.80;;;1.65;;
73557;SDS011;61829;53.286;10.434;2023-10-09T04:50:15;3.88;;;1.33;;
73557;SDS011;61829;53.286;10.434;2023-10-09T04:52:44;6.25;;;1.50;;
73557;SDS011;61829;53.286;10.434;2023-10-09T04:55:10;4.78;;;1.60;;
73557;SDS011;61829;53.286;10.434;2023-10-09T05:00:09;4.65;;;1.40;;
73557;SDS011;61829;53.286;10.434;2023-10-09T05:02:51;4.10;;;1.75;;
73557;SDS011;61829;53.286;10.434;2023-10-09T05:05:25;3.83;;;1.30;;
73557;SDS011;61829;53.286;10.434;2023-10-09T05:08:04;2.58;;;1.35;;
73557;SDS011;61829;53.286;10.434;2023-10-09T05:10:56;5.38;;;1.58;;
73557;SDS011;61829;53.286;10.434;2023-10-09T05:16:17;4.38;;;1.55;;
73557;SDS011;61829;53.286;10.434;2023-10-09T05:21:24;3.40;;;1.50;;
73557;SDS011;61829;53.286;10.434;2023-10-09T05:23:50;4.28;;;1.27;;
73557;SDS011;61829;53.286;10.434;2023-10-09T05:26:35;7.10;;;1.73;;
73557;SDS011;61829;53.286;10.434;2023-10-09T05:29:14;3.65;;;1.40;;
73557;SDS011;61829;53.286;10.434;2023-10-09T05:31:47;2.88;;;1.30;;
73557;SDS011;61829;53.286;10.434;2023-10-09T05:34:33;3.75;;;1.45;;
73557;SDS011;61829;53.286;10.434;2023-10-09T05:37:03;6.40;;;1.83;;
73557;SDS011;61829;53.286;10.434;2023-10-09T05:39:51;3.28;;;1.55;;
73557;SDS011;61829;53.286;10.434;2023-10-09T05:42:34;4.55;;;1.45;;
73557;SDS011;61829;53.286;10.434;2023-10-09T05:47:44;3.45;;;1.30;;
73557;SDS011;61829;53.286;10.434;2023-10-09T05:50:24;4.20;;;1.35;;
73557;SDS011;61829;53.286;10.434;2023-10-09T05:56:58;4.50;;;1.63;;
73557;SDS011;61829;53.286;10.434;2023-10-09T06:00:03;3.42;;;1.55;;
73557;SDS011;61829;53.286;10.434;2023-10-09T06:02:48;3.63;;;1.77;;
73557;SDS011;61829;53.286;10.434;2023-10-09T06:05:33;3.17;;;1.50;;
73557;SDS011;61829;53.286;10.434;2023-10-09T06:08:28;4.28;;;1.50;;
73557;SDS011;61829;53.286;10.434;2023-10-09T06:11:08;3.90;;;1.85;;
73557;SDS011;61829;53.286;10.434;2023-10-09T06:13:54;4.88;;;2.33;;
73557;SDS011;61829;53.286;10.434;2023-10-09T06:16:30;4.15;;;1.70;;
73557;SDS011;61829;53.286;10.434;2023-10-09T06:19:25;3.80;;;1.50;;
73557;SDS011;61829;53.286;10.434;2023-10-09T06:21:56;6.03;;;2.13;;
73557;SDS011;61829;53.286;10.434;2023-10-09T06:24:38;5.88;;;1.88;;
73557;SDS011;61829;53.286;10.434;2023-10-09T06:27:12;5.40;;;1.85;;
73557;SDS011;61829;53.286;10.434;2023-10-09T06:29:38;3.70;;;1.65;;
73557;SDS011;61829;53.286;10.434;2023-10-09T06:32:19;4.95;;;1.92;;
73557;SDS011;61829;53.286;10.434;2023-10-09T06:34:45;5.72;;;2.10;;
73557;SDS011;61829;53.286;10.434;2023-10-09T06:37:18;6.32;;;2.00;;
73557;SDS011;61829;53.286;10.434;2023-10-09T06:39:52;5.75;;;1.85;;
73557;SDS011;61829;53.286;10.434;2023-10-09T06:42:25;4.80;;;1.98;;
73557;SDS011;61829;53.286;10.434;2023-10-09T06:45:05;5.22;;;2.10;;
73557;SDS011;61829;53.286;10.434;2023-10-09T06:47:47;6.40;;;2.47;;
73557;SDS011;61829;53.286;10.434;2023-10-09T06:50:21;4.07;;;2.10;;
73557;SDS011;61829;53.286;10.434;2023-10-09T06:52:52;5.72;;;2.33;;
73557;SDS011;61829;53.286;10.434;2023-10-09T06:55:37;7.13;;;2.28;;
73557;SDS011;61829;53.286;10.434;2023-10-09T06:58:31;4.93;;;2.30;;
73557;SDS011;61829;53.286;10.434;2023-10-09T07:01:07;5.10;;;2.28;;
73557;SDS011;61829;53.286;10.434;2023-10-09T07:03:55;5.82;;;2.55;;
73557;SDS011;61829;53.286;10.434;2023-10-09T07:10:16;5.68;;;2.80;;
73557;SDS011;61829;53.286;10.434;2023-10-09T07:12:58;5.93;;;3.20;;
73557;SDS011;61829;53.286;10.434;2023-10-09T07:15:24;5.50;;;2.75;;
73557;SDS011;61829;53.286;10.434;2023-10-09T07:18:09;8.05;;;2.85;;
73557;SDS011;61829;53.286;10.434;2023-10-09T07:20:49;7.05;;;3.20;;
73557;SDS011;61829;53.286;10.434;2023-10-09T07:23:36;6.35;;;3.10;;
73557;SDS011;61829;53.286;10.434;2023-10-09T07:26:20;5.05;;;2.80;;
73557;SDS011;61829;53.286;10.434;2023-10-09T07:29:37;4.95;;;2.65;;
73557;SDS011;61829;53.286;10.434;2023-10-09T07:32:29;7.05;;;3.03;;
73557;SDS011;61829;53.286;10.434;2023-10-09T07:35:24;5.70;;;2.92;;
73557;SDS011;61829;53.286;10.434;2023-10-09T07:39:02;4.53;;;2.72;;
73557;SDS011;61829;53.286;10.434;2023-10-09T07:45:12;4.63;;;2.90;;
73557;SDS011;61829;53.286;10.434;2023-10-09T07:47:55;5.03;;;3.08;;
73557;SDS011;61829;53.286;10.434;2023-10-09T07:50:38;7.55;;;2.95;;
73557;SDS011;61829;53.286;10.434;2023-10-09T07:54:06;5.30;;;2.33;;
73557;SDS011;61829;53.286;10.434;2023-10-09T07:57:09;5.35;;;2.58;;
73557;SDS011;61829;53.286;10.434;2023-10-09T08:00:19;5.18;;;2.83;;
73557;SDS011;61829;53.286;10.434;2023-10-09T08:03:27;5.68;;;3.00;;
73557;SDS011;61829;53.286;10.434;2023-10-09T08:06:14;4.95;;;3.00;;
73557;SDS011;61829;53.286;10.434;2023-10-09T08:09:31;4.78;;;2.92;;
73557;SDS011;61829;53.286;10.434;2023-10-09T08:16:17;5.97;;;3.10;;
73557;SDS011;61829;53.286;10.434;2023-10-09T08:19:21;5.68;;;2.72;;
73557;SDS011;61829;53.286;10.434;2023-10-09T08:22:26;5.10;;;3.10;;
73557;SDS011;61829;53.286;10.434;2023-10-09T08:25:25;4.93;;;2.60;;
73557;SDS011;61829;53.286;10.434;2023-10-09T08:28:53;4.70;;;2.75;;
73557;SDS011;61829;53.286;10.434;2023-10-09T08:31:54;5.72;;;2.65;;
73557;SDS011;61829;53.286;10.434;2023-10-09T08:35:01;5.00;;;2.30;;
73557;SDS011;61829;53.286;10.434;2023-10-09T08:38:03;4.20;;;2.20;;
73557;SDS011;61829;53.286;10.434;2023-10-09T08:41:23;4.20;;;2.25;;
73557;SDS011;61829;53.286;10.434;2023-10-09T08:44:20;5.07;;;2.60;;
73557;SDS011;61829;53.286;10.434;2023-10-09T08:47:11;4.55;;;2.35;;
73557;SDS011;61829;53.286;10.434;2023-10-09T08:50:07;4.85;;;2.50;;
73557;SDS011;61829;53.286;10.434;2023-10-09T08:52:54;5.78;;;2.92;;
73557;SDS011;61829;53.286;10.434;2023-10-09T08:55:52;7.15;;;2.90;;
73557;SDS011;61829;53.286;10.434;2023-10-09T08:59:08;5.13;;;2.45;;
73557;SDS011;61829;53.286;10.434;2023-10-09T09:02:04;4.40;;;2.67;;
73557;SDS011;61829;53.286;10.434;2023-10-09T09:04:55;5.45;;;2.47;;
73557;SDS011;61829;53.286;10.434;2023-10-09T09:07:48;5.95;;;2.72;;
73557;SDS011;61829;53.286;10.434;2023-10-09T09:11:21;4.78;;;2.55;;
73557;SDS011;61829;53.286;10.434;2023-10-09T09:14:34;5.38;;;2.63;;
73557;SDS011;61829;53.286;10.434;2023-10-09T09:18:00;5.35;;;2.40;;
73557;SDS011;61829;53.286;10.434;2023-10-09T09:20:45;4.80;;;2.75;;
73557;SDS011;61829;53.286;10.434;2023-10-09T09:23:28;5.50;;;3.13;;
73557;SDS011;61829;53.286;10.434;2023-10-09T09:26:37;5.78;;;3.33;;
73557;SDS011;61829;53.286;10.434;2023-10-09T09:29:42;6.68;;;3.53;;
73557;SDS011;61829;53.286;10.434;2023-10-09T09:35:35;4.28;;;2.65;;
73557;SDS011;61829;53.286;10.434;2023-10-09T09:38:01;6.47;;;2.88;;
73557;SDS011;61829;53.286;10.434;2023-10-09T09:40:32;8.52;;;3.95;;
73557;SDS011;61829;53.286;10.434;2023-10-09T09:43:08;6.18;;;4.10;;
73557;SDS011;61829;53.286;10.434;2023-10-09T09:45:47;6.07;;;3.75;;
73557;SDS011;61829;53.286;10.434;2023-10-09T09:48:15;5.30;;;2.85;;
73557;SDS011;61829;53.286;10.434;2023-10-09T09:50:43;5.57;;;2.88;;
73557;SDS011;61829;53.286;10.434;2023-10-09T09:53:12;5.13;;;2.78;;
73557;SDS011;61829;53.286;10.434;2023-10-09T09:55:53;4.95;;;2.95;;
73557;SDS011;61829;53.286;10.434;2023-10-09T09:58:24;6.60;;;2.58;;
73557;SDS011;61829;53.286;10.434;2023-10-09T10:00:53;4.70;;;2.45;;
73557;SDS011;61829;53.286;10.434;2023-10-09T10:03:31;6.57;;;3.30;;
73557;SDS011;61829;53.286;10.434;2023-10-09T10:06:02;5.10;;;2.67;;
73557;SDS011;61829;53.286;10.434;2023-10-09T10:11:05;5.47;;;2.92;;
73557;SDS011;61829;53.286;10.434;2023-10-09T10:16:07;5.60;;;2.70;;
73557;SDS011;61829;53.286;10.434;2023-10-09T10:21:18;4.30;;;2.60;;
73557;SDS011;61829;53.286;10.434;2023-10-09T10:23:54;4.45;;;2.65;;
73557;SDS011;61829;53.286;10.434;2023-10-09T10:26:32;4.28;;;2.60;;
73557;SDS011;61829;53.286;10.434;2023-10-09T10:34:22;4.60;;;2.20;;
73557;SDS011;61829;53.286;10.434;2023-10-09T10:36:51;4.68;;;2.33;;
73557;SDS011;61829;53.286;10.434;2023-10-09T10:39:24;3.55;;;2.05;;
73557;SDS011;61829;53.286;10.434;2023-10-09T10:44:55;2.83;;;2.03;;
73557;SDS011;61829;53.286;10.434;2023-10-09T10:47:25;4.40;;;2.30;;
73557;SDS011;61829;53.286;10.434;2023-10-09T10:49:58;3.40;;;2.30;;
73557;SDS011;61829;53.286;10.434;2023-10-09T10:52:34;3.63;;;2.45;;
73557;SDS011;61829;53.286;10.434;2023-10-09T10:55:14;4.25;;;2.00;;
73557;SDS011;61829;53.286;10.434;2023-10-09T10:57:46;3.97;;;2.58;;
73557;SDS011;61829;53.286;10.434;2023-10-09T11:00:30;4.50;;;2.22;;
73557;SDS011;61829;53.286;10.434;2023-10-09T11:03:19;3.80;;;2.35;;
73557;SDS011;61829;53.286;10.434;2023-10-09T11:05:56;3.65;;;2.03;;
73557;SDS011;61829;53.286;10.434;2023-10-09T11:08:43;3.65;;;2.15;;
73557;SDS011;61829;53.286;10.434;2023-10-09T11:11:22;4.10;;;2.50;;
73557;SDS011;61829;53.286;10.434;2023-10-09T11:13:49;6.15;;;2.70;;
73557;SDS011;61829;53.286;10.434;2023-10-09T11:16:23;3.90;;;2.33;;
73557;SDS011;61829;53.286;10.434;2023-10-09T11:19:09;3.83;;;2.80;;
73557;SDS011;61829;53.286;10.434;2023-10-09T11:21:54;5.22;;;2.90;;
73557;SDS011;61829;53.286;10.434;2023-10-09T11:24:41;4.80;;;2.95;;
73557;SDS011;61829;53.286;10.434;2023-10-09T11:27:09;4.88;;;2.85;;
73557;SDS011;61829;53.286;10.434;2023-10-09T11:29:48;6.32;;;2.78;;
73557;SDS011;61829;53.286;10.434;2023-10-09T11:32:19;3.88;;;2.40;;
73557;SDS011;61829;53.286;10.434;2023-10-09T11:34:49;4.45;;;2.47;;
73557;SDS011;61829;53.286;10.434;2023-10-09T11:37:23;4.10;;;2.50;;
73557;SDS011;61829;53.286;10.434;2023-10-09T11:39:56;3.20;;;2.20;;
73557;SDS011;61829;53.286;10.434;2023-10-09T11:42:23;3.70;;;2.10;;
73557;SDS011;61829;53.286;10.434;2023-10-09T11:45:19;9.32;;;4.18;;
73557;SDS011;61829;53.286;10.434;2023-10-09T11:47:54;3.78;;;2.53;;
73557;SDS011;61829;53.286;10.434;2023-10-09T11:53:17;3.63;;;2.30;;
73557;SDS011;61829;53.286;10.434;2023-10-09T11:55:50;3.78;;;2.10;;
73557;SDS011;61829;53.286;10.434;2023-10-09T11:58:21;3.35;;;1.85;;
73557;SDS011;61829;53.286;10.434;2023-10-09T12:03:27;3.22;;;2.10;;
73557;SDS011;61829;53.286;10.434;2023-10-09T12:05:56;3.00;;;1.67;;
73557;SDS011;61829;53.286;10.434;2023-10-09T12:08:46;1.88;;;1.48;;
73557;SDS011;61829;53.286;10.434;2023-10-09T12:11:13;2.50;;;1.52;;
73557;SDS011;61829;53.286;10.434;2023-10-09T12:13:51;2.85;;;2.00;;
73557;SDS011;61829;53.286;10.434;2023-10-09T12:16:22;3.28;;;1.90;;
73557;SDS011;61829;53.286;10.434;2023-10-09T12:18:53;2.50;;;1.50;;
73557;SDS011;61829;53.286;10.434;2023-10-09T12:21:20;2.38;;;1.52;;
73557;SDS011;61829;53.286;10.434;2023-10-09T12:23:46;3.80;;;1.73;;
73557;SDS011;61829;53.286;10.434;2023-10-09T12:26:13;2.70;;;2.00;;
73557;SDS011;61829;53.286;10.434;2023-10-09T12:28:42;3.20;;;2.00;;
73557;SDS011;61829;53.286;10.434;2023-10-09T12:31:13;3.05;;;2.15;;
73557;SDS011;61829;53.286;10.434;2023-10-09T12:33:45;4.65;;;1.70;;
73557;SDS011;61829;53.286;10.434;2023-10-09T12:36:13;3.13;;;1.95;;
73557;SDS011;61829;53.286;10.434;2023-10-09T12:38:49;3.78;;;2.20;;
73557;SDS011;61829;53.286;10.434;2023-10-09T12:41:19;2.55;;;1.73;;
73557;SDS011;61829;53.286;10.434;2023-10-09T12:43:51;2.88;;;1.50;;
73557;SDS011;61829;53.286;10.434;2023-10-09T12:48:53;1.92;;;1.30;;
73557;SDS011;61829;53.286;10.434;2023-10-09T12:51:24;2.17;;;1.40;;
73557;SDS011;61829;53.286;10.434;2023-10-09T12:56:27;1.63;;;1.27;;
73557;SDS011;61829;53.286;10.434;2023-10-09T12:59:03;1.75;;;1.20;;
73557;SDS011;61829;53.286;10.434;2023-10-09T13:01:33;2.03;;;1.30;;
73557;SDS011;61829;53.286;10.434;2023-10-09T13:04:13;1.73;;;1.23;;
73557;SDS011;61829;53.286;10.434;2023-10-09T13:06:44;1.45;;;1.20;;
73557;SDS011;61829;53.286;10.434;2023-10-09T13:11:40;1.98;;;1.20;;
73557;SDS011;61829;53.286;10.434;2023-10-09T13:14:06;2.50;;;1.40;;
73557;SDS011;61829;53.286;10.434;2023-10-09T13:16:59;3.58;;;1.40;;
73557;SDS011;61829;53.286;10.434;2023-10-09T13:19:25;2.45;;;1.30;;
73557;SDS011;61829;53.286;10.434;2023-10-09T13:21:54;2.47;;;1.50;;
73557;SDS011;61829;53.286;10.434;2023-10-09T13:24:20;1.77;;;1.33;;
73557;SDS011;61829;53.286;10.434;2023-10-09T13:26:54;2.95;;;1.75;;
73557;SDS011;61829;53.286;10.434;2023-10-09T13:29:24;2.30;;;1.40;;
73557;SDS011;61829;53.286;10.434;2023-10-09T13:31:55;2.53;;;1.48;;
73557;SDS011;61829;53.286;10.434;2023-10-09T13:34:28;2.50;;;1.73;;
73557;SDS011;61829;53.286;10.434;2023-10-09T13:36:54;4.75;;;1.58;;
73557;SDS011;61829;53.286;10.434;2023-10-09T13:39:22;3.15;;;1.70;;
73557;SDS011;61829;53.286;10.434;2023-10-09T13:41:56;2.90;;;1.65;;
73557;SDS011;61829;53.286;10.434;2023-10-09T13:44:33;1.98;;;1.38;;
73557;SDS011;61829;53.286;10.434;2023-10-09T13:47:01;3.25;;;1.92;;
73557;SDS011;61829;53.286;10.434;2023-10-09T13:49:31;3.22;;;1.83;;
73557;SDS011;61829;53.286;10.434;2023-10-09T13:51:58;5.68;;;2.10;;
73557;SDS011;61829;53.286;10.434;2023-10-09T13:54:27;2.97;;;1.65;;
73557;SDS011;61829;53.286;10.434;2023-10-09T13:57:00;5.18;;;2.10;;
73557;SDS011;61829;53.286;10.434;2023-10-09T13:59:33;2.97;;;1.80;;
73557;SDS011;61829;53.286;10.434;2023-10-09T14:02:03;3.20;;;1.90;;
73557;SDS011;61829;53.286;10.434;2023-10-09T14:04:42;3.15;;;1.98;;
73557;SDS011;61829;53.286;10.434;2023-10-09T14:07:09;4.13;;;2.85;;
73557;SDS011;61829;53.286;10.434;2023-10-09T14:09:36;3.08;;;1.88;;
73557;SDS011;61829;53.286;10.434;2023-10-09T14:12:11;2.58;;;1.70;;
73557;SDS011;61829;53.286;10.434;2023-10-09T14:14:43;2.53;;;1.75;;
73557;SDS011;61829;53.286;10.434;2023-10-09T14:17:14;3.15;;;1.90;;
73557;SDS011;61829;53.286;10.434;2023-10-09T14:19:40;2.70;;;1.70;;
73557;SDS011;61829;53.286;10.434;2023-10-09T14:22:16;2.28;;;1.67;;
73557;SDS011;61829;53.286;10.434;2023-10-09T14:24:47;2.50;;;1.70;;
73557;SDS011;61829;53.286;10.434;2023-10-09T14:27:22;2.40;;;1.65;;
73557;SDS011;61829;53.286;10.434;2023-10-09T14:29:53;1.92;;;1.40;;
73557;SDS011;61829;53.286;10.434;2023-10-09T14:32:23;2.38;;;1.63;;
73557;SDS011;61829;53.286;10.434;2023-10-09T14:34:57;2.55;;;1.67;;
73557;SDS011;61829;53.286;10.434;2023-10-09T14:37:41;2.90;;;1.80;;
73557;SDS011;61829;53.286;10.434;2023-10-09T14:40:07;3.42;;;2.00;;
73557;SDS011;61829;53.286;10.434;2023-10-09T14:42:39;4.32;;;2.05;;
73557;SDS011;61829;53.286;10.434;2023-10-09T14:45:09;3.15;;;1.90;;
73557;SDS011;61829;53.286;10.434;2023-10-09T14:47:42;3.80;;;2.40;;
73557;SDS011;61829;53.286;10.434;2023-10-09T14:50:08;4.93;;;2.10;;
73557;SDS011;61829;53.286;10.434;2023-10-09T14:52:38;5.40;;;2.20;;
73557;SDS011;61829;53.286;10.434;2023-10-09T14:55:06;3.60;;;2.05;;
73557;SDS011;61829;53.286;10.434;2023-10-09T14:57:33;3.88;;;1.92;;
73557;SDS011;61829;53.286;10.434;2023-10-09T15:00:02;3.75;;;1.83;;
73557;SDS011;61829;53.286;10.434;2023-10-09T15:02:42;3.08;;;1.95;;
73557;SDS011;61829;53.286;10.434;2023-10-09T15:05:08;2.67;;;1.80;;
73557;SDS011;61829;53.286;10.434;2023-10-09T15:07:38;3.47;;;1.92;;
73557;SDS011;61829;53.286;10.434;2023-10-09T15:10:04;4.03;;;1.88;;
73557;SDS011;61829;53.286;10.434;2023-10-09T15:12:31;4.43;;;2.40;;
73557;SDS011;61829;53.286;10.434;2023-10-09T15:14:57;4.30;;;2.13;;
73557;SDS011;61829;53.286;10.434;2023-10-09T15:17:24;4.07;;;2.38;;
73557;SDS011;61829;53.286;10.434;2023-10-09T15:19:50;6.03;;;2.53;;
73557;SDS011;61829;53.286;10.434;2023-10-09T15:22:22;5.88;;;2.80;;
73557;SDS011;61829;53.286;10.434;2023-10-09T15:24:48;4.72;;;2.88;;
73557;SDS011;61829;53.286;10.434;2023-10-09T15:27:15;6.32;;;3.40;;
73557;SDS011;61829;53.286;10.434;2023-10-09T15:29:41;5.07;;;2.92;;
73557;SDS011;61829;53.286;10.434;2023-10-09T15:32:10;4.97;;;3.30;;
73557;SDS011;61829;53.286;10.434;2023-10-09T15:34:48;5.68;;;3.75;;
73557;SDS011;61829;53.286;10.434;2023-10-09T15:37:14;6.07;;;3.83;;
73557;SDS011;61829;53.286;10.434;2023-10-09T15:39:43;8.73;;;3.75;;
73557;SDS011;61829;53.286;10.434;2023-10-09T15:42:09;5.53;;;3.60;;
73557;SDS011;61829;53.286;10.434;2023-10-09T15:44:38;5.28;;;2.78;;
73557;SDS011;61829;53.286;10.434;2023-10-09T15:47:09;6.68;;;3.33;;
73557;SDS011;61829;53.286;10.434;2023-10-09T15:49:37;5.72;;;3.25;;
73557;SDS011;61829;53.286;10.434;2023-10-09T15:52:07;4.53;;;2.83;;
73557;SDS011;61829;53.286;10.434;2023-10-09T15:54:34;4.95;;;2.80;;
73557;SDS011;61829;53.286;10.434;2023-10-09T15:57:01;5.82;;;4.10;;
73557;SDS011;61829;53.286;10.434;2023-10-09T15:59:27;8.95;;;4.10;;
73557;SDS011;61829;53.286;10.434;2023-10-09T16:01:53;12.52;;;6.25;;
73557;SDS011;61829;53.286;10.434;2023-10-09T16:04:19;7.03;;;4.10;;
73557;SDS011;61829;53.286;10.434;2023-10-09T16:06:47;6.35;;;3.90;;
73557;SDS011;61829;53.286;10.434;2023-10-09T16:09:13;5.85;;;4.10;;
73557;SDS011;61829;53.286;10.434;2023-10-09T16:11:47;6.60;;;4.20;;
73557;SDS011;61829;53.286;10.434;2023-10-09T16:14:13;6.10;;;3.83;;
73557;SDS011;61829;53.286;10.434;2023-10-09T16:16:41;6.13;;;3.92;;
73557;SDS011;61829;53.286;10.434;2023-10-09T16:19:08;7.25;;;4.22;;
73557;SDS011;61829;53.286;10.434;2023-10-09T16:21:37;7.20;;;4.10;;
73557;SDS011;61829;53.286;10.434;2023-10-09T16:24:05;6.53;;;4.15;;
73557;SDS011;61829;53.286;10.434;2023-10-09T16:26:32;7.07;;;3.97;;
73557;SDS011;61829;53.286;10.434;2023-10-09T16:29:11;7.15;;;4.63;;
73557;SDS011;61829;53.286;10.434;2023-10-09T16:31:38;7.13;;;4.97;;
73557;SDS011;61829;53.286;10.434;2023-10-09T16:34:04;6.18;;;4.53;;
73557;SDS011;61829;53.286;10.434;2023-10-09T16:36:33;8.07;;;5.75;;
73557;SDS011;61829;53.286;10.434;2023-10-09T16:39:01;26.50;;;9.35;;
73557;SDS011;61829;53.286;10.434;2023-10-09T16:41:28;22.75;;;8.80;;
73557;SDS011;61829;53.286;10.434;2023-10-09T16:43:55;18.60;;;7.57;;
73557;SDS011;61829;53.286;10.434;2023-10-09T16:46:22;55.30;;;14.93;;
73557;SDS011;61829;53.286;10.434;2023-10-09T16:48:49;19.20;;;8.13;;